Time;durP1;ratioP1;P1;durP2;ratioP2;P2;SDS_P1;SDS_P2;PMS_P1;PMS_P2;Temp;Humidity;BMP_temperature;BMP_pressure;BME280_temperature;BME280_humidity;BME280_pressure;Samples;Min_cycle;Max_cycle;Signal;HPM_P1;HPM_P2
2023/06/27 00:00:46;;;;;;;5.40;3.35;;;19.20;95.20;;;;;;5037158;28;20044;-49
2023/06/27 00:03:36;;;;;;;5.68;3.60;;;19.10;95.30;;;;;;5054853;28;20064;-51
2023/06/27 00:06:22;;;;;;;8.15;3.53;;;19.10;95.20;;;;;;5042157;28;20028;-52
2023/06/27 00:09:10;;;;;;;5.68;3.30;;;19.00;95.20;;;;;;5034662;28;20026;-50
2023/06/27 00:11:56;;;;;;;8.38;3.65;;;19.00;95.30;;;;;;5034632;28;20033;-53
2023/06/27 00:14:44;;;;;;;6.88;3.70;;;19.00;95.40;;;;;;5035873;28;20032;-49
2023/06/27 00:17:32;;;;;;;7.38;3.33;;;18.90;95.40;;;;;;5035379;28;20471;-51
2023/06/27 00:20:18;;;;;;;5.32;3.55;;;18.80;95.60;;;;;;5034227;28;20013;-49
2023/06/27 00:23:23;;;;;;;6.85;3.80;;;18.70;95.90;;;;;;5035063;28;20534;-55
2023/06/27 00:26:10;;;;;;;9.02;3.50;;;18.80;95.80;;;;;;5034213;28;20037;-54
2023/06/27 00:28:56;;;;;;;6.18;3.50;;;18.60;95.90;;;;;;5034169;28;20037;-50
2023/06/27 00:31:43;;;;;;;6.78;3.60;;;18.50;96.00;;;;;;5018628;28;20541;-53
2023/06/27 00:34:29;;;;;;;8.50;3.40;;;18.50;96.10;;;;;;5015538;28;20080;-52
2023/06/27 00:37:15;;;;;;;5.28;3.30;;;18.40;96.10;;;;;;5015101;28;20025;-54
2023/06/27 00:40:01;;;;;;;6.75;3.67;;;18.30;96.50;;;;;;5015391;28;20037;-54
2023/06/27 00:42:47;;;;;;;9.82;3.80;;;18.30;96.60;;;;;;5021611;28;20582;-51
2023/06/27 00:45:33;;;;;;;7.75;3.55;;;18.20;96.80;;;;;;5014696;28;20091;-49
2023/06/27 00:48:19;;;;;;;5.82;3.60;;;18.20;96.70;;;;;;5014068;28;20030;-48
2023/06/27 00:51:09;;;;;;;8.52;3.70;;;18.30;96.70;;;;;;5015199;28;20078;-48
2023/06/27 00:53:56;;;;;;;6.80;3.72;;;18.20;96.60;;;;;;5014009;28;20026;-52
2023/06/27 00:56:42;;;;;;;7.38;3.80;;;18.20;96.60;;;;;;5014673;28;20080;-49
2023/06/27 00:59:28;;;;;;;8.55;3.70;;;18.10;96.90;;;;;;5033631;28;20025;-50
2023/06/27 01:02:14;;;;;;;8.93;3.88;;;18.10;97.00;;;;;;5048698;28;20052;-51
2023/06/27 01:05:00;;;;;;;5.15;3.25;;;18.00;96.80;;;;;;5049938;28;20041;-53
2023/06/27 01:07:57;;;;;;;7.03;3.42;;;18.00;97.00;;;;;;5033176;28;20526;-51
2023/06/27 01:11:03;;;;;;;5.25;3.60;;;18.10;97.00;;;;;;5033354;28;20144;-50
2023/06/27 01:13:50;;;;;;;8.30;3.92;;;18.10;96.70;;;;;;5037499;28;20437;-53
2023/06/27 01:16:37;;;;;;;5.45;3.17;;;17.90;97.00;;;;;;5042470;28;20037;-51
2023/06/27 01:19:27;;;;;;;5.28;3.58;;;17.80;97.20;;;;;;5041121;28;20079;-52
2023/06/27 01:22:17;;;;;;;8.57;3.80;;;17.90;97.20;;;;;;5040142;28;20026;-51
2023/06/27 01:25:07;;;;;;;6.50;3.47;;;17.80;97.20;;;;;;5034856;28;20363;-52
2023/06/27 01:27:53;;;;;;;5.20;3.40;;;17.80;97.30;;;;;;5025947;28;20042;-55
2023/06/27 01:30:40;;;;;;;9.15;3.92;;;17.80;97.50;;;;;;5033341;28;20033;-55
2023/06/27 01:33:41;;;;;;;5.72;4.25;;;17.80;97.30;;;;;;5033905;28;20033;-52
2023/06/27 01:36:42;;;;;;;6.18;3.40;;;17.70;97.50;;;;;;5033743;28;20108;-55
2023/06/27 01:39:35;;;;;;;6.88;4.00;;;17.60;97.70;;;;;;5032984;28;20445;-52
2023/06/27 01:42:27;;;;;;;5.78;3.67;;;17.60;97.60;;;;;;5032547;28;20033;-53
2023/06/27 01:45:16;;;;;;;6.45;3.85;;;17.60;97.50;;;;;;5033540;28;20041;-52
2023/06/27 01:48:03;;;;;;;7.70;3.70;;;17.50;97.60;;;;;;5033945;28;20025;-49
2023/06/27 01:50:52;;;;;;;6.78;3.80;;;17.50;97.30;;;;;;5034942;28;20028;-48
2023/06/27 01:53:37;;;;;;;6.10;4.10;;;17.40;97.60;;;;;;5033661;28;20052;-49
2023/06/27 01:56:23;;;;;;;10.90;4.35;;;17.40;97.80;;;;;;5033918;28;20099;-49
2023/06/27 01:59:09;;;;;;;7.53;3.63;;;17.30;97.70;;;;;;5034939;28;20516;-51
2023/06/27 02:01:55;;;;;;;7.65;3.53;;;17.30;97.70;;;;;;5035353;28;20409;-52
2023/06/27 02:04:41;;;;;;;7.47;3.95;;;17.40;97.90;;;;;;5033923;28;20033;-48
2023/06/27 02:07:27;;;;;;;4.93;3.40;;;17.20;98.20;;;;;;5036008;28;20029;-48
2023/06/27 02:10:13;;;;;;;6.03;3.55;;;17.30;98.00;;;;;;5038011;28;20075;-50
2023/06/27 02:13:01;;;;;;;8.05;3.88;;;17.30;98.10;;;;;;5040895;28;20021;-48
2023/06/27 02:15:47;;;;;;;6.03;4.10;;;17.30;97.90;;;;;;5037470;28;20497;-50
2023/06/27 02:18:33;;;;;;;5.72;3.65;;;17.20;98.00;;;;;;5032518;28;20475;-49
2023/06/27 02:21:19;;;;;;;8.30;4.10;;;17.10;98.40;;;;;;5030847;28;20029;-48
2023/06/27 02:24:05;;;;;;;10.13;3.88;;;17.00;98.50;;;;;;5033182;28;20112;-51
2023/06/27 02:26:51;;;;;;;9.00;3.78;;;17.00;98.50;;;;;;5033294;28;20033;-48
2023/06/27 02:29:38;;;;;;;7.57;4.03;;;16.90;98.50;;;;;;5032583;28;20478;-50
2023/06/27 02:32:24;;;;;;;5.50;3.45;;;16.90;98.70;;;;;;5019342;28;20155;-50
2023/06/27 02:35:14;;;;;;;5.97;3.30;;;16.80;98.90;;;;;;5032110;28;20104;-53
2023/06/27 02:38:00;;;;;;;7.63;3.90;;;16.70;99.10;;;;;;5035729;28;20026;-52
2023/06/27 02:40:47;;;;;;;5.10;3.75;;;16.70;99.00;;;;;;5038357;28;20470;-55
2023/06/27 02:43:33;;;;;;;10.05;3.95;;;16.70;99.20;;;;;;5035960;28;20029;-50
2023/06/27 02:46:19;;;;;;;6.22;3.50;;;16.70;99.10;;;;;;5035780;28;20076;-55
2023/06/27 02:49:05;;;;;;;6.90;4.32;;;16.80;98.90;;;;;;5032974;28;20052;-53
2023/06/27 02:51:50;;;;;;;10.57;4.20;;;16.70;99.00;;;;;;5031089;28;20030;-52
2023/06/27 02:54:36;;;;;;;9.00;4.22;;;16.70;99.10;;;;;;5031654;28;20030;-51
2023/06/27 02:57:22;;;;;;;8.30;4.03;;;16.70;98.50;;;;;;5032408;28;20071;-49
2023/06/27 03:00:09;;;;;;;7.72;3.40;;;16.80;98.50;;;;;;5032973;28;20029;-51
2023/06/27 03:02:55;;;;;;;8.45;4.13;;;16.80;98.50;;;;;;5032128;28;20068;-50
2023/06/27 03:05:41;;;;;;;7.20;3.60;;;16.80;98.60;;;;;;5032425;28;20025;-53
2023/06/27 03:08:27;;;;;;;9.10;4.07;;;16.70;98.80;;;;;;5033634;28;20084;-51
2023/06/27 03:11:13;;;;;;;9.77;4.25;;;16.80;98.80;;;;;;5034409;28;20058;-50
2023/06/27 03:13:59;;;;;;;9.82;4.07;;;16.90;98.70;;;;;;5021392;28;20030;-54
2023/06/27 03:16:45;;;;;;;7.50;3.85;;;16.90;98.60;;;;;;5026253;28;20030;-53
2023/06/27 03:19:31;;;;;;;10.10;4.38;;;16.90;98.80;;;;;;5037301;28;20025;-54
2023/06/27 03:22:17;;;;;;;9.90;4.10;;;17.00;98.60;;;;;;5048930;28;20065;-52
2023/06/27 03:25:04;;;;;;;8.88;4.53;;;16.90;98.80;;;;;;5048343;28;20549;-49
2023/06/27 03:27:50;;;;;;;8.35;4.30;;;16.90;99.10;;;;;;5038941;28;20112;-50
2023/06/27 03:30:43;;;;;;;9.80;3.95;;;16.90;99.10;;;;;;5037373;28;20033;-53
2023/06/27 03:33:28;;;;;;;9.70;4.47;;;16.80;99.60;;;;;;5037017;28;20033;-51
2023/06/27 03:36:14;;;;;;;8.32;4.28;;;16.80;99.70;;;;;;5035796;28;20026;-51
2023/06/27 03:39:00;;;;;;;8.32;4.88;;;16.70;99.90;;;;;;5035576;28;20088;-51
2023/06/27 03:41:47;;;;;;;8.57;4.20;;;16.60;99.90;;;;;;5035016;28;20037;-54
2023/06/27 03:44:34;;;;;;;10.70;4.30;;;16.70;99.90;;;;;;5035042;28;20032;-49
2023/06/27 03:47:21;;;;;;;11.30;4.20;;;16.60;99.80;;;;;;5034831;28;20038;-48
2023/06/27 03:50:07;;;;;;;9.02;4.75;;;16.60;99.90;;;;;;5034458;28;20042;-48
2023/06/27 03:52:53;;;;;;;8.90;4.53;;;16.60;99.90;;;;;;5034189;28;20053;-49
2023/06/27 03:55:40;;;;;;;9.25;4.50;;;16.60;99.90;;;;;;5035766;28;20026;-50
2023/06/27 03:58:26;;;;;;;9.45;4.50;;;16.80;99.60;;;;;;5036802;28;20363;-50
2023/06/27 04:01:12;;;;;;;10.68;4.72;;;16.80;99.70;;;;;;5035901;28;20502;-52
2023/06/27 04:03:58;;;;;;;10.70;4.68;;;16.80;99.50;;;;;;5035206;28;20034;-51
2023/06/27 04:06:44;;;;;;;10.65;4.60;;;16.90;99.40;;;;;;5034667;28;20163;-50
2023/06/27 04:09:30;;;;;;;9.32;4.70;;;16.80;99.40;;;;;;5033961;28;20029;-51
2023/06/27 04:12:16;;;;;;;12.45;5.28;;;16.70;99.70;;;;;;5034537;28;20080;-53
2023/06/27 04:15:02;;;;;;;10.07;4.28;;;16.70;99.60;;;;;;5033447;28;20029;-49
2023/06/27 04:17:48;;;;;;;9.32;4.22;;;16.70;99.80;;;;;;5034241;28;20036;-53
2023/06/27 04:20:35;;;;;;;11.00;4.90;;;16.50;99.80;;;;;;5035215;28;20036;-51
2023/06/27 04:23:21;;;;;;;12.93;4.25;;;16.50;99.90;;;;;;5015608;28;20084;-50
2023/06/27 04:26:07;;;;;;;7.85;4.38;;;16.70;99.70;;;;;;5015013;28;20398;-50
2023/06/27 04:28:53;;;;;;;9.98;5.22;;;16.60;99.40;;;;;;5015138;28;20128;-50
2023/06/27 04:31:39;;;;;;;9.82;4.18;;;16.60;99.60;;;;;;5014904;28;20524;-49
2023/06/27 04:34:25;;;;;;;9.60;4.25;;;16.70;99.60;;;;;;5018016;28;20059;-52
2023/06/27 04:37:11;;;;;;;10.27;4.00;;;16.80;99.50;;;;;;5034058;28;20498;-50
2023/06/27 04:39:57;;;;;;;9.18;3.78;;;16.90;99.30;;;;;;5034193;28;20026;-51
2023/06/27 04:42:43;;;;;;;9.18;3.75;;;16.90;99.20;;;;;;5034366;28;20498;-50
2023/06/27 04:45:29;;;;;;;11.93;4.63;;;16.90;99.40;;;;;;5033722;28;20040;-52
2023/06/27 04:48:15;;;;;;;10.30;3.97;;;16.80;99.50;;;;;;5028775;28;20040;-51
2023/06/27 04:51:01;;;;;;;9.88;4.30;;;16.80;99.70;;;;;;5034147;28;20030;-51
2023/06/27 04:53:47;;;;;;;11.35;5.10;;;16.80;99.40;;;;;;5020471;28;20052;-51
2023/06/27 04:56:33;;;;;;;15.45;4.97;;;16.70;99.60;;;;;;5033487;28;20486;-51
2023/06/27 04:59:19;;;;;;;9.85;4.75;;;16.70;99.90;;;;;;5033712;28;20395;-50
2023/06/27 05:02:05;;;;;;;16.23;6.80;;;16.90;99.80;;;;;;5034257;28;20480;-52
2023/06/27 05:04:51;;;;;;;8.77;4.65;;;16.70;99.70;;;;;;5033976;28;20029;-56
2023/06/27 05:07:37;;;;;;;10.02;5.25;;;16.70;99.90;;;;;;5033430;28;20034;-51
2023/06/27 05:10:23;;;;;;;8.98;4.38;;;16.80;99.90;;;;;;5036718;28;20038;-52
2023/06/27 05:13:09;;;;;;;11.40;4.40;;;16.90;99.60;;;;;;5050326;28;20017;-52
2023/06/27 05:15:55;;;;;;;9.48;4.40;;;17.00;99.30;;;;;;5041939;28;20018;-53
2023/06/27 05:18:41;;;;;;;7.07;3.92;;;17.10;99.40;;;;;;5033615;28;20022;-53
2023/06/27 05:21:29;;;;;;;11.45;4.13;;;17.20;99.10;;;;;;5028243;28;20557;-54
2023/06/27 05:24:15;;;;;;;13.55;4.30;;;17.20;99.60;;;;;;5034422;28;20033;-51
2023/06/27 05:27:01;;;;;;;7.40;3.65;;;17.00;99.10;;;;;;5032452;28;20037;-51
2023/06/27 05:29:47;;;;;;;7.35;4.65;;;17.00;99.10;;;;;;5032664;28;20073;-49
2023/06/27 05:32:33;;;;;;;10.13;4.47;;;17.00;99.10;;;;;;5033030;28;20021;-52
2023/06/27 05:35:19;;;;;;;9.18;4.10;;;17.20;99.20;;;;;;5034255;28;20138;-51
2023/06/27 05:38:05;;;;;;;9.38;4.13;;;17.40;98.00;;;;;;5034102;28;20052;-51
2023/06/27 05:40:51;;;;;;;8.10;4.18;;;17.10;98.30;;;;;;5034359;28;20032;-53
2023/06/27 05:43:37;;;;;;;13.10;4.43;;;17.30;98.60;;;;;;5033359;28;20034;-51
2023/06/27 05:46:23;;;;;;;9.98;4.45;;;17.40;98.20;;;;;;5033533;28;20025;-50
2023/06/27 05:49:09;;;;;;;8.10;4.50;;;17.40;98.00;;;;;;5032628;28;20030;-51
2023/06/27 05:51:55;;;;;;;10.05;4.53;;;17.60;97.70;;;;;;5031501;28;20372;-50
2023/06/27 05:54:43;;;;;;;6.60;3.80;;;17.60;97.30;;;;;;5031143;28;20510;-54
2023/06/27 05:57:29;;;;;;;9.85;4.28;;;17.50;97.30;;;;;;5013326;28;20041;-50
2023/06/27 06:00:16;;;;;;;9.05;4.18;;;17.50;97.00;;;;;;5014885;28;20026;-51
2023/06/27 06:03:02;;;;;;;8.43;4.15;;;17.50;96.30;;;;;;5032554;28;20087;-50
2023/06/27 06:05:48;;;;;;;12.40;4.22;;;17.50;96.40;;;;;;5018296;28;20025;-51
2023/06/27 06:08:34;;;;;;;8.98;4.00;;;17.50;96.40;;;;;;5032128;28;20029;-51
2023/06/27 06:11:20;;;;;;;6.72;3.47;;;17.40;96.80;;;;;;5033436;28;20021;-51
2023/06/27 06:14:06;;;;;;;10.25;3.10;;;17.60;96.10;;;;;;5032589;28;20028;-49
2023/06/27 06:16:52;;;;;;;8.02;3.50;;;17.50;94.80;;;;;;5034022;28;20037;-50
2023/06/27 06:19:38;;;;;;;11.60;3.72;;;17.50;95.10;;;;;;5045169;28;20029;-50
2023/06/27 06:22:23;;;;;;;7.35;3.17;;;17.60;94.70;;;;;;5040329;28;20053;-51
2023/06/27 06:25:10;;;;;;;7.65;3.00;;;17.60;94.10;;;;;;5023423;28;20029;-52
2023/06/27 06:27:56;;;;;;;7.35;3.40;;;17.60;94.00;;;;;;5022429;28;20076;-52
2023/06/27 06:30:42;;;;;;;7.38;3.17;;;17.80;93.50;;;;;;5036918;28;20025;-50
2023/06/27 06:33:28;;;;;;;8.60;3.40;;;17.70;93.80;;;;;;5038991;28;20093;-50
2023/06/27 06:36:14;;;;;;;9.48;3.50;;;17.80;93.80;;;;;;5034733;28;20060;-55
2023/06/27 06:39:00;;;;;;;6.13;3.30;;;17.70;93.80;;;;;;5033955;28;20502;-51
2023/06/27 06:41:46;;;;;;;9.93;3.15;;;17.60;93.70;;;;;;5032621;28;20033;-50
2023/06/27 06:44:32;;;;;;;8.70;3.80;;;17.60;93.30;;;;;;5033395;28;20040;-51
2023/06/27 06:47:17;;;;;;;7.45;2.78;;;17.70;93.40;;;;;;5032140;28;20053;-50
2023/06/27 06:50:04;;;;;;;10.00;3.17;;;17.90;93.00;;;;;;5030964;28;20040;-51
2023/06/27 06:52:50;;;;;;;5.07;2.90;;;18.00;92.40;;;;;;5033606;28;20026;-53
2023/06/27 06:55:36;;;;;;;5.03;3.20;;;17.90;92.40;;;;;;5031915;28;20030;-53
2023/06/27 06:58:21;;;;;;;10.88;3.25;;;18.00;92.50;;;;;;5036224;28;20029;-51
2023/06/27 07:01:07;;;;;;;5.97;3.38;;;18.00;91.30;;;;;;5036090;28;20030;-54
2023/06/27 07:03:54;;;;;;;8.70;2.78;;;18.10;91.30;;;;;;5036563;28;20029;-50
2023/06/27 07:06:40;;;;;;;6.20;3.10;;;18.30;91.00;;;;;;5036254;28;20490;-54
2023/06/27 07:09:26;;;;;;;6.80;2.70;;;18.40;91.00;;;;;;5035891;28;20486;-53
2023/06/27 07:12:12;;;;;;;5.03;2.78;;;18.30;91.00;;;;;;5034578;28;20113;-54
2023/06/27 07:14:58;;;;;;;6.40;3.00;;;18.40;91.50;;;;;;5034832;28;20034;-54
2023/06/27 07:17:44;;;;;;;7.70;2.78;;;18.40;91.40;;;;;;5033179;28;20021;-51
2023/06/27 07:20:30;;;;;;;3.88;2.63;;;18.50;90.70;;;;;;5035652;28;20036;-51
2023/06/27 07:23:16;;;;;;;9.27;3.40;;;18.40;90.60;;;;;;5036539;28;20057;-51
2023/06/27 07:26:03;;;;;;;8.10;2.90;;;18.60;90.20;;;;;;5035831;28;20383;-53
2023/06/27 07:28:49;;;;;;;4.10;2.42;;;18.80;90.60;;;;;;5035054;28;20029;-52
2023/06/27 07:31:34;;;;;;;5.60;2.88;;;18.90;90.20;;;;;;5034409;28;20025;-54
2023/06/27 07:34:20;;;;;;;7.68;3.05;;;18.80;90.40;;;;;;5034941;28;20025;-50
2023/06/27 07:37:07;;;;;;;7.78;3.33;;;18.80;90.40;;;;;;5035603;28;20021;-55
2023/06/27 07:39:53;;;;;;;4.30;2.97;;;19.00;90.30;;;;;;5032620;28;20401;-50
2023/06/27 07:42:39;;;;;;;4.63;3.00;;;19.00;90.10;;;;;;5029513;28;20472;-51
2023/06/27 07:45:26;;;;;;;6.15;3.10;;;19.00;90.50;;;;;;5028271;28;20406;-51
2023/06/27 07:48:12;;;;;;;5.88;2.92;;;19.10;90.20;;;;;;5033222;28;20089;-50
2023/06/27 07:50:58;;;;;;;4.07;2.85;;;19.20;90.00;;;;;;5035431;28;20034;-52
2023/06/27 07:53:44;;;;;;;6.50;3.08;;;19.10;90.10;;;;;;5034688;28;20028;-54
2023/06/27 07:56:30;;;;;;;4.47;2.80;;;19.30;90.30;;;;;;5032583;28;20116;-53
2023/06/27 07:59:16;;;;;;;8.63;2.90;;;19.10;90.00;;;;;;5033283;28;20057;-50
2023/06/27 08:02:03;;;;;;;5.90;3.28;;;19.10;90.40;;;;;;5030922;28;20029;-56
2023/06/27 08:04:48;;;;;;;6.75;2.80;;;19.00;90.20;;;;;;5031869;28;20030;-51
2023/06/27 08:07:36;;;;;;;6.85;2.80;;;19.10;90.20;;;;;;5030950;28;20033;-54
2023/06/27 08:10:24;;;;;;;5.28;2.80;;;19.40;89.10;;;;;;5031980;28;20409;-56
2023/06/27 08:13:10;;;;;;;6.15;2.80;;;19.60;87.90;;;;;;5033267;28;20371;-54
2023/06/27 08:15:56;;;;;;;8.25;2.97;;;19.70;87.00;;;;;;5029927;28;20625;-52
2023/06/27 08:18:41;;;;;;;7.85;3.03;;;19.70;88.70;;;;;;5027997;28;20049;-53
2023/06/27 08:21:28;;;;;;;5.20;2.72;;;19.60;90.00;;;;;;5028209;28;20099;-58
2023/06/27 08:24:14;;;;;;;6.93;3.35;;;19.70;89.80;;;;;;5033995;28;20116;-59
2023/06/27 08:27:00;;;;;;;6.22;3.00;;;19.50;89.90;;;;;;5031637;28;20030;-53
2023/06/27 08:29:46;;;;;;;5.53;3.15;;;19.30;91.40;;;;;;5026785;28;20194;-59
2023/06/27 08:32:32;;;;;;;7.38;3.10;;;19.00;91.70;;;;;;5035462;28;20022;-59
2023/06/27 08:35:18;;;;;;;4.30;2.92;;;18.90;92.30;;;;;;5032124;28;20014;-57
2023/06/27 08:38:04;;;;;;;7.40;3.33;;;19.00;92.10;;;;;;5029734;28;20033;-59
2023/06/27 08:40:56;;;;;;;6.18;2.80;;;18.90;91.40;;;;;;5034713;28;20060;-56
2023/06/27 08:43:42;;;;;;;6.95;2.88;;;19.10;91.10;;;;;;5031835;28;20490;-57
2023/06/27 08:46:32;;;;;;;5.10;2.80;;;19.20;91.60;;;;;;5031638;28;20014;-58
2023/06/27 08:49:23;;;;;;;6.78;2.85;;;19.20;90.90;;;;;;5024585;28;20026;-58
2023/06/27 08:52:13;;;;;;;6.57;3.00;;;19.30;90.80;;;;;;5026699;28;20157;-54
2023/06/27 08:55:00;;;;;;;5.00;2.97;;;19.50;90.50;;;;;;5027879;28;20029;-57
2023/06/27 08:57:46;;;;;;;7.38;2.88;;;19.70;90.00;;;;;;5035045;28;20095;-55
2023/06/27 09:00:33;;;;;;;8.63;3.05;;;19.70;88.70;;;;;;5033873;28;20053;-59
2023/06/27 09:03:20;;;;;;;6.63;2.97;;;19.60;88.50;;;;;;5025185;28;20489;-57
2023/06/27 09:06:11;;;;;;;6.05;2.90;;;19.40;88.20;;;;;;5028022;28;20117;-58
2023/06/27 09:08:57;;;;;;;4.15;2.70;;;19.50;87.40;;;;;;5024639;28;20028;-56
2023/06/27 09:11:44;;;;;;;6.32;3.20;;;19.80;87.40;;;;;;5029229;28;20049;-59
2023/06/27 09:14:30;;;;;;;6.32;3.50;;;20.20;87.60;;;;;;5036137;28;20032;-59
2023/06/27 09:17:16;;;;;;;5.70;2.80;;;20.50;87.70;;;;;;5029394;28;20026;-59
2023/06/27 09:20:02;;;;;;;4.78;2.60;;;20.60;85.60;;;;;;5024671;28;20037;-58
2023/06/27 09:22:49;;;;;;;6.78;2.70;;;20.60;84.50;;;;;;5023553;28;20065;-59
2023/06/27 09:25:35;;;;;;;5.40;2.88;;;20.40;84.70;;;;;;5026371;28;20032;-59
2023/06/27 09:28:21;;;;;;;6.28;2.60;;;20.30;87.10;;;;;;5023906;28;20022;-57
2023/06/27 09:31:07;;;;;;;7.55;2.92;;;20.40;84.70;;;;;;5025910;28;20025;-55
2023/06/27 09:34:04;;;;;;;5.38;2.70;;;20.20;85.00;;;;;;5028979;28;20048;-54
2023/06/27 09:36:50;;;;;;;5.57;2.60;;;20.20;85.20;;;;;;5028102;28;20026;-57
2023/06/27 09:39:36;;;;;;;5.47;2.67;;;20.10;85.60;;;;;;5024514;28;20218;-57
2023/06/27 09:42:22;;;;;;;4.63;2.90;;;20.10;85.50;;;;;;5023272;28;20026;-56
2023/06/27 09:45:14;;;;;;;6.40;2.67;;;20.00;85.70;;;;;;5025407;28;20025;-55
2023/06/27 09:48:00;;;;;;;4.75;2.45;;;20.00;84.60;;;;;;5027762;28;20393;-55
2023/06/27 09:50:47;;;;;;;4.82;2.85;;;20.30;84.00;;;;;;5040325;28;20034;-59
2023/06/27 09:53:33;;;;;;;3.78;2.83;;;20.60;83.10;;;;;;5044429;28;20025;-59
2023/06/27 09:56:29;;;;;;;4.60;2.67;;;20.50;83.50;;;;;;5025112;28;20029;-60
2023/06/27 09:59:17;;;;;;;6.53;2.50;;;20.90;83.80;;;;;;5023861;28;20096;-60
2023/06/27 10:02:03;;;;;;;9.68;3.00;;;21.00;82.80;;;;;;5027143;28;20159;-60
2023/06/27 10:04:49;;;;;;;4.35;2.67;;;21.00;83.10;;;;;;5026183;28;20032;-58
2023/06/27 10:07:37;;;;;;;5.10;2.47;;;20.60;81.70;;;;;;5023670;28;20017;-59
2023/06/27 10:10:25;;;;;;;5.72;2.67;;;20.40;83.30;;;;;;5026604;28;20106;-60
2023/06/27 10:13:12;;;;;;;9.32;3.60;;;20.00;88.10;;;;;;5031576;28;20013;-57
2023/06/27 10:15:57;;;;;;;4.78;2.80;;;19.40;92.40;;;;;;5030874;28;20029;-57
2023/06/27 10:18:44;;;;;;;6.95;3.10;;;18.80;91.70;;;;;;5030874;28;20029;-58
2023/06/27 10:21:31;;;;;;;4.78;2.83;;;18.60;94.20;;;;;;5032397;28;20026;-57
2023/06/27 10:24:17;;;;;;;4.05;2.72;;;18.70;93.60;;;;;;5035189;28;20030;-59
2023/06/27 10:27:07;;;;;;;4.68;2.90;;;18.80;92.50;;;;;;5032794;28;20034;-58
2023/06/27 10:29:53;;;;;;;5.55;2.80;;;19.20;93.20;;;;;;5029687;28;20037;-59
2023/06/27 10:32:43;;;;;;;5.85;2.90;;;19.60;92.80;;;;;;5022664;28;20022;-58
2023/06/27 10:35:29;;;;;;;6.63;2.80;;;20.20;91.00;;;;;;5020944;28;20026;-56
2023/06/27 10:38:17;;;;;;;4.95;2.88;;;20.10;90.10;;;;;;5026818;28;20025;-57
2023/06/27 10:41:05;;;;;;;4.50;3.00;;;20.40;91.00;;;;;;5026336;28;20061;-58
2023/06/27 10:43:52;;;;;;;6.00;2.90;;;20.90;90.50;;;;;;5022731;28;20026;-57
2023/06/27 10:46:38;;;;;;;7.25;2.95;;;20.80;89.50;;;;;;5019868;28;20018;-57
2023/06/27 10:49:35;;;;;;;6.75;2.88;;;20.60;85.50;;;;;;5027052;28;20030;-57
2023/06/27 10:52:23;;;;;;;6.28;2.70;;;20.60;85.90;;;;;;5032544;28;20537;-54
2023/06/27 10:55:15;;;;;;;4.85;3.15;;;20.50;85.90;;;;;;5025038;28;20013;-53
2023/06/27 10:58:06;;;;;;;6.30;2.80;;;20.50;84.30;;;;;;5030268;28;20018;-53
2023/06/27 11:00:52;;;;;;;5.15;2.85;;;20.50;84.90;;;;;;5029363;28;20152;-57
2023/06/27 11:03:44;;;;;;;4.88;2.70;;;20.60;85.70;;;;;;5031104;28;20526;-59
2023/06/27 11:06:45;;;;;;;5.07;3.08;;;20.80;82.30;;;;;;5023722;28;20022;-58
2023/06/27 11:09:31;;;;;;;6.32;2.67;;;21.10;83.40;;;;;;5027262;28;20026;-56
2023/06/27 11:12:19;;;;;;;6.63;2.80;;;21.20;82.90;;;;;;5024433;28;20056;-57
2023/06/27 11:15:05;;;;;;;6.32;2.95;;;21.30;83.40;;;;;;5029165;28;20032;-54
2023/06/27 11:17:51;;;;;;;9.70;3.10;;;21.50;83.20;;;;;;5028981;28;20049;-52
2023/06/27 11:20:38;;;;;;;7.72;2.60;;;21.50;81.90;;;;;;5027577;28;20138;-52
2023/06/27 11:23:25;;;;;;;4.25;2.70;;;21.60;79.90;;;;;;5027826;28;20112;-54
2023/06/27 11:26:11;;;;;;;6.55;2.88;;;21.60;80.80;;;;;;5029579;28;20029;-56
2023/06/27 11:29:02;;;;;;;4.47;2.42;;;21.80;80.50;;;;;;5028139;28;20413;-55
2023/06/27 11:31:49;;;;;;;3.35;2.10;;;21.70;78.50;;;;;;5026701;28;20108;-52
2023/06/27 11:34:36;;;;;;;2.88;2.35;;;21.40;75.40;;;;;;5031285;28;20144;-56
2023/06/27 11:37:22;;;;;;;4.88;2.45;;;21.20;74.00;;;;;;5022417;28;20026;-54
2023/06/27 11:40:15;;;;;;;5.40;2.72;;;21.40;74.60;;;;;;5024836;28;20079;-54
2023/06/27 11:43:07;;;;;;;3.50;2.65;;;21.40;76.20;;;;;;5029913;28;20026;-58
2023/06/27 11:45:57;;;;;;;4.35;2.78;;;21.60;77.70;;;;;;5031387;28;20036;-54
2023/06/27 11:48:43;;;;;;;5.20;2.58;;;21.70;78.10;;;;;;5026927;28;20390;-56
2023/06/27 11:51:41;;;;;;;3.88;2.80;;;21.70;78.50;;;;;;5032829;28;20026;-55
2023/06/27 11:54:27;;;;;;;5.15;2.60;;;21.80;79.20;;;;;;5032916;28;20073;-57
2023/06/27 11:57:13;;;;;;;6.20;3.25;;;21.90;78.80;;;;;;5025303;28;20105;-58
2023/06/27 11:59:59;;;;;;;3.63;2.55;;;21.80;78.30;;;;;;5028775;28;20525;-57
2023/06/27 12:02:52;;;;;;;5.63;2.47;;;21.80;78.00;;;;;;5027595;28;20455;-55
2023/06/27 12:05:43;;;;;;;9.18;2.80;;;22.00;77.40;;;;;;5027529;28;20029;-57
2023/06/27 12:08:34;;;;;;;2.78;2.28;;;21.90;78.50;;;;;;5033648;28;20033;-57
2023/06/27 12:11:32;;;;;;;5.93;2.40;;;22.00;76.60;;;;;;5028871;28;20422;-58
2023/06/27 12:14:22;;;;;;;6.07;2.70;;;22.00;76.40;;;;;;5026221;28;20030;-58
2023/06/27 12:17:21;;;;;;;5.20;2.95;;;21.90;75.80;;;;;;5024381;28;20026;-55
2023/06/27 12:20:07;;;;;;;4.30;2.58;;;21.90;75.70;;;;;;5026561;28;20183;-57
2023/06/27 12:22:53;;;;;;;10.77;3.17;;;22.00;76.90;;;;;;5028605;28;20033;-56
2023/06/27 12:25:40;;;;;;;6.43;2.72;;;22.10;79.70;;;;;;5027754;28;20022;-59
2023/06/27 12:28:26;;;;;;;5.32;2.78;;;22.30;81.00;;;;;;5033684;28;20029;-57
2023/06/27 12:31:12;;;;;;;5.13;3.00;;;22.30;80.90;;;;;;5032955;28;20104;-57
2023/06/27 12:34:01;;;;;;;5.85;2.65;;;22.10;80.00;;;;;;5033617;28;20033;-56
2023/06/27 12:36:47;;;;;;;5.70;2.50;;;21.90;81.40;;;;;;5032557;28;20030;-54
2023/06/27 12:39:33;;;;;;;6.25;2.97;;;22.20;78.40;;;;;;5029493;28;20518;-55
2023/06/27 12:42:19;;;;;;;4.45;2.45;;;22.30;78.70;;;;;;5026864;28;20026;-56
2023/06/27 12:45:05;;;;;;;5.82;2.70;;;22.70;77.70;;;;;;5028323;28;20100;-57
2023/06/27 12:47:51;;;;;;;4.03;2.60;;;22.80;76.00;;;;;;5023837;28;20521;-55
2023/06/27 12:50:37;;;;;;;5.88;2.55;;;22.90;76.20;;;;;;5024217;28;20030;-54
2023/06/27 12:53:23;;;;;;;6.38;2.88;;;22.80;75.90;;;;;;5025124;28;20028;-55
2023/06/27 12:56:09;;;;;;;4.10;2.70;;;22.90;75.10;;;;;;5026087;28;20018;-57
2023/06/27 12:58:56;;;;;;;3.47;2.72;;;23.10;76.00;;;;;;5029022;28;20040;-58
2023/06/27 13:01:54;;;;;;;5.72;2.58;;;23.50;73.00;;;;;;5024165;28;20033;-55
2023/06/27 13:04:40;;;;;;;5.18;2.92;;;23.20;73.80;;;;;;5026955;28;20040;-54
2023/06/27 13:07:26;;;;;;;3.90;2.50;;;22.70;75.30;;;;;;5038488;28;20132;-57
2023/06/27 13:10:12;;;;;;;6.03;2.78;;;22.70;73.70;;;;;;5029160;28;20030;-56
2023/06/27 13:13:00;;;;;;;5.57;2.70;;;22.50;75.00;;;;;;5024082;28;20026;-55
2023/06/27 13:15:46;;;;;;;4.72;2.58;;;22.50;74.90;;;;;;5024371;28;20022;-55
2023/06/27 13:18:32;;;;;;;7.28;3.42;;;22.40;75.40;;;;;;5030563;28;20398;-57
2023/06/27 13:21:18;;;;;;;5.53;2.75;;;22.50;75.50;;;;;;5024490;28;20494;-57
2023/06/27 13:24:05;;;;;;;3.95;2.78;;;22.30;75.10;;;;;;5023744;28;20109;-53
2023/06/27 13:26:51;;;;;;;4.47;2.78;;;22.50;75.40;;;;;;5025534;28;20453;-49
2023/06/27 13:29:37;;;;;;;4.60;2.80;;;22.90;75.10;;;;;;5026133;28;20025;-55
2023/06/27 13:32:24;;;;;;;5.95;3.15;;;23.10;74.40;;;;;;5025160;28;20028;-49
2023/06/27 13:35:10;;;;;;;4.05;2.60;;;23.40;75.00;;;;;;5027411;28;20041;-50
2023/06/27 13:37:56;;;;;;;8.98;2.63;;;23.60;73.70;;;;;;5029012;28;20030;-50
2023/06/27 13:40:42;;;;;;;7.35;3.05;;;23.50;75.20;;;;;;5027521;28;20068;-50
2023/06/27 13:43:28;;;;;;;8.32;2.90;;;23.50;73.90;;;;;;5023970;28;20521;-51
2023/06/27 13:46:14;;;;;;;5.10;3.03;;;23.90;73.60;;;;;;5025453;28;20037;-52
2023/06/27 13:49:00;;;;;;;4.28;2.80;;;23.90;72.50;;;;;;5025418;28;20030;-51
2023/06/27 13:51:46;;;;;;;2.97;2.40;;;23.70;72.30;;;;;;5024549;28;20399;-52
2023/06/27 13:54:32;;;;;;;5.65;2.78;;;23.70;71.70;;;;;;5025256;28;20025;-55
2023/06/27 13:57:18;;;;;;;7.88;2.50;;;23.70;71.80;;;;;;5031864;28;20033;-56
2023/06/27 14:00:05;;;;;;;6.53;2.65;;;23.80;71.30;;;;;;5028452;28;20033;-54
2023/06/27 14:02:51;;;;;;;5.15;2.65;;;23.90;71.40;;;;;;5024051;28;20025;-55
2023/06/27 14:05:37;;;;;;;3.40;2.83;;;24.30;69.70;;;;;;5028655;28;20116;-53
2023/06/27 14:08:23;;;;;;;7.45;2.75;;;23.90;69.60;;;;;;5026878;28;20036;-56
2023/06/27 14:11:13;;;;;;;4.72;2.78;;;23.80;69.10;;;;;;5030053;28;20017;-51
2023/06/27 14:13:59;;;;;;;2.95;2.47;;;23.70;69.10;;;;;;5026145;28;20411;-55
2023/06/27 14:16:45;;;;;;;7.05;2.70;;;23.60;69.40;;;;;;5026965;28;20112;-54
2023/06/27 14:19:31;;;;;;;5.63;2.80;;;23.40;69.90;;;;;;5030054;28;20096;-52
2023/06/27 14:22:17;;;;;;;4.15;2.58;;;23.20;71.20;;;;;;5031162;28;20092;-55
2023/06/27 14:25:04;;;;;;;6.53;2.50;;;23.00;71.50;;;;;;5026986;28;20036;-52
2023/06/27 14:27:50;;;;;;;4.85;2.50;;;22.80;71.60;;;;;;5022059;28;20108;-54